Terminal Aerodrome Forecast
Issued by NWS

Home | Current Version | Previous Version | Text Only | Print | Product List | Glossary On
Versions: 1 2 3 4 5 6 7 8 9 10 11 12
626
FTUS41 KBGM 271120
TAFELM
TAF
KELM 271120Z 2712/2812 00000KT P6SM SCT070 BKN150
     FM271400 23008KT P6SM BKN045
     FM280000 00000KT P6SM SCT070 BKN150
      TEMPO 2808/2811 3SM BR=

USA.gov is the U.S. government's official web portal to all federal, state and local government web resources and services.